Terminal Aerodrome Forecast
Issued by NWS Corpus Christi, TX

Home | Current Version | Previous Version | Text Only | Print | Product List | Glossary On
Versions: 1 2 3 4 5 6 7 8 9 10 11 12 13 14 15 16 17
000
FTUS44 KCRP 280212 AAA
TAFVCT
TAF AMD
KVCT 280212Z 2802/2824 18008KT P6SM BKN250
     FM280400 14010KT P6SM SCT025
     FM280800 14004KT 5SM BR BKN015
      TEMPO 2810/2814 2SM BR BKN009
     FM281530 15012KT P6SM BKN035
     FM281900 15015G22KT P6SM SCT040 BKN250=

USA.gov is the U.S. government's official web portal to all federal, state and local government web resources and services.